createdAt,value
2022-10-13T00:01:57.747Z,7.55
2022-10-13T00:05:00.109Z,7.72
2022-10-13T00:08:03.216Z,7.76
2022-10-13T00:11:10.806Z,7.72
2022-10-13T00:14:13.163Z,7.62
2022-10-13T00:17:15.655Z,7.55
2022-10-13T00:20:18.177Z,7.51
2022-10-13T00:23:20.644Z,7.48
2022-10-13T00:26:25.136Z,7.49
2022-10-13T00:29:27.483Z,7.54
2022-10-13T00:32:30.094Z,7.55
2022-10-13T00:35:33.707Z,7.58
2022-10-13T00:38:36.164Z,7.48
2022-10-13T00:41:38.509Z,7.40
2022-10-13T00:45:19.771Z,7.30
2022-10-13T00:48:28.636Z,7.32
2022-10-13T00:51:36.399Z,7.27
2022-10-13T00:54:38.908Z,7.20
2022-10-13T00:57:44.400Z,7.09
2022-10-13T01:00:49.137Z,7.04
2022-10-13T01:03:52.692Z,7.10
2022-10-13T01:06:56.559Z,7.05
2022-10-13T01:10:01.123Z,7.00
2022-10-13T01:13:23.458Z,7.01
2022-10-13T01:16:46.799Z,7.03
2022-10-13T01:20:09.378Z,6.99
2022-10-13T01:23:30.055Z,7.04
2022-10-13T01:27:01.994Z,7.00
2022-10-13T01:30:16.583Z,6.93
2022-10-13T01:33:44.288Z,6.91
2022-10-13T01:37:05.272Z,6.88
2022-10-13T01:40:21.354Z,6.82
2022-10-13T01:43:31.837Z,6.83
2022-10-13T01:46:37.646Z,6.91
2022-10-13T01:49:41.056Z,6.92
2022-10-13T01:52:43.898Z,6.86
2022-10-13T01:55:58.609Z,6.77
2022-10-13T01:59:07.857Z,6.78
2022-10-13T02:02:24.396Z,6.73
2022-10-13T02:05:49.440Z,6.70
2022-10-13T02:09:06.330Z,6.63
2022-10-13T02:12:17.409Z,6.66
2022-10-13T02:15:25.625Z,6.67
2022-10-13T02:18:33.718Z,6.67
2022-10-13T02:21:36.076Z,6.66
2022-10-13T02:24:38.725Z,6.66
2022-10-13T02:27:41.620Z,6.65
2022-10-13T02:30:45.609Z,6.61
2022-10-13T02:33:48.067Z,6.55
2022-10-13T02:36:50.425Z,6.55
2022-10-13T02:39:52.888Z,6.56
2022-10-13T02:42:55.383Z,6.54
2022-10-13T02:45:57.744Z,6.43
2022-10-13T02:49:00.312Z,6.40
2022-10-13T02:52:04.418Z,6.37
2022-10-13T02:55:07.478Z,6.41
2022-10-13T02:58:09.882Z,6.43
2022-10-13T03:01:15.421Z,6.34
2022-10-13T03:04:17.974Z,6.30
2022-10-13T03:07:20.396Z,6.23
2022-10-13T03:10:22.937Z,6.18
2022-10-13T03:13:27.611Z,6.15
2022-10-13T03:16:36.064Z,6.08
2022-10-13T03:19:38.548Z,6.09
2022-10-13T03:22:40.850Z,5.95
2022-10-13T03:25:43.307Z,5.86
2022-10-13T03:28:50.644Z,5.86
2022-10-13T03:31:53.038Z,5.84
2022-10-13T03:34:55.395Z,5.79
2022-10-13T03:37:57.800Z,5.78
2022-10-13T03:41:26.799Z,5.80
2022-10-13T03:44:29.158Z,5.78
2022-10-13T03:47:31.662Z,5.67
2022-10-13T03:50:34.120Z,5.61
2022-10-13T03:53:36.748Z,5.61
2022-10-13T03:56:39.843Z,5.61
2022-10-13T03:59:42.424Z,5.62
2022-10-13T04:02:44.820Z,5.55
2022-10-13T04:05:47.684Z,5.63
2022-10-13T04:08:51.749Z,5.68
2022-10-13T04:11:54.330Z,5.62
2022-10-13T04:14:56.832Z,5.60
2022-10-13T04:17:59.152Z,5.57
2022-10-13T04:21:01.633Z,5.60
2022-10-13T04:24:05.383Z,5.54
2022-10-13T04:27:07.850Z,5.51
2022-10-13T04:30:13.472Z,5.50
2022-10-13T04:33:16.093Z,5.45
2022-10-13T04:36:19.525Z,5.41
2022-10-13T04:39:25.461Z,5.43
2022-10-13T04:42:27.922Z,5.43
2022-10-13T04:45:30.471Z,5.33
2022-10-13T04:48:33.051Z,5.36
2022-10-13T04:51:35.468Z,5.32
2022-10-13T04:54:37.933Z,5.34
2022-10-13T04:57:40.403Z,5.38
2022-10-13T05:00:46.877Z,5.39
2022-10-13T05:04:07.940Z,5.46
2022-10-13T05:07:18.023Z,5.41
2022-10-13T05:10:21.170Z,5.47
2022-10-13T05:13:25.321Z,5.51
2022-10-13T05:16:28.032Z,5.57
2022-10-13T05:19:30.985Z,5.74
2022-10-13T05:22:33.789Z,5.80
2022-10-13T05:25:37.872Z,5.92
2022-10-13T05:28:41.124Z,6.01
2022-10-13T05:31:43.735Z,6.17
2022-10-13T05:34:48.938Z,6.46
2022-10-13T05:37:51.615Z,6.50
2022-10-13T05:40:54.060Z,6.57
2022-10-13T05:44:05.175Z,6.58
2022-10-13T05:47:07.879Z,6.64
2022-10-13T05:50:10.575Z,7.01
2022-10-13T05:53:16.067Z,6.98
2022-10-13T05:56:23.875Z,7.10
2022-10-13T05:59:29.692Z,7.19
2022-10-13T06:02:37.889Z,7.32
2022-10-13T06:05:43.101Z,7.43
2022-10-13T06:08:45.809Z,7.63
2022-10-13T06:11:48.331Z,7.93
2022-10-13T06:14:51.410Z,8.05
2022-10-13T06:17:54.104Z,8.17
2022-10-13T06:20:56.644Z,8.25
2022-10-13T06:23:59.209Z,8.32
2022-10-13T06:27:01.665Z,8.46
2022-10-13T06:30:04.837Z,8.73
2022-10-13T06:33:07.325Z,8.70
2022-10-13T06:36:10.841Z,8.76
2022-10-13T06:39:13.271Z,8.74
2022-10-13T06:42:16.362Z,8.78
2022-10-13T06:45:19.642Z,8.91
2022-10-13T06:48:22.190Z,9.01
2022-10-13T06:51:24.729Z,9.09
2022-10-13T06:54:27.230Z,9.20
2022-10-13T06:57:29.719Z,9.11
2022-10-13T07:00:33.969Z,9.02
2022-10-13T07:03:36.410Z,9.08
2022-10-13T07:06:39.008Z,8.87
2022-10-13T07:09:41.561Z,8.62
2022-10-13T07:12:44.023Z,8.68
2022-10-13T07:15:46.690Z,9.11
2022-10-13T07:18:49.458Z,9.41
2022-10-13T07:21:52.295Z,9.44
2022-10-13T07:24:55.347Z,9.80
2022-10-13T07:28:00.795Z,10.11
2022-10-13T07:31:16.375Z,10.22
2022-10-13T07:34:18.799Z,10.03
2022-10-13T07:37:21.932Z,10.39
2022-10-13T07:40:25.272Z,10.44
2022-10-13T07:43:27.836Z,10.41
2022-10-13T07:46:30.765Z,10.45
2022-10-13T07:49:33.178Z,10.42
2022-10-13T07:52:39.651Z,10.36
2022-10-13T07:55:44.187Z,10.37
2022-10-13T07:58:47.427Z,10.44
2022-10-13T08:01:49.972Z,10.68
2022-10-13T08:04:52.666Z,11.13
2022-10-13T08:07:58.298Z,11.50
2022-10-13T08:11:06.781Z,11.69
2022-10-13T08:14:12.091Z,11.92
2022-10-13T08:17:14.655Z,12.17
2022-10-13T08:20:17.347Z,12.35
2022-10-13T08:23:23.839Z,12.48
2022-10-13T08:26:29.370Z,12.37
2022-10-13T08:29:32.156Z,12.29
2022-10-13T08:32:34.648Z,12.50
2022-10-13T08:35:37.514Z,12.70
2022-10-13T08:38:40.714Z,12.79
2022-10-13T08:41:44.676Z,12.81
2022-10-13T08:45:39.803Z,12.90
2022-10-13T08:48:28.013Z,13.06
2022-10-13T08:51:30.476Z,13.26
2022-10-13T08:54:33.511Z,13.33
2022-10-13T08:57:35.939Z,13.27
2022-10-13T09:00:39.077Z,13.38
2022-10-13T09:03:54.500Z,13.44
2022-10-13T09:07:04.761Z,13.52
2022-10-13T09:10:09.858Z,13.63
2022-10-13T09:13:12.342Z,13.68
2022-10-13T09:16:15.423Z,13.63
2022-10-13T09:19:41.017Z,13.62
2022-10-13T09:22:44.887Z,13.80
2022-10-13T09:25:50.178Z,13.94
2022-10-13T09:28:53.165Z,13.94
2022-10-13T09:32:18.405Z,14.10
2022-10-13T09:35:22.646Z,14.16
2022-10-13T09:38:26.027Z,14.29
2022-10-13T09:41:28.476Z,14.31
2022-10-13T09:44:32.095Z,14.35
2022-10-13T09:47:34.961Z,14.50
2022-10-13T09:50:39.888Z,14.69
2022-10-13T09:53:47.685Z,14.69
2022-10-13T09:56:58.079Z,14.79
2022-10-13T10:00:05.111Z,14.92
2022-10-13T10:03:26.167Z,14.89
2022-10-13T10:06:28.546Z,15.05
2022-10-13T10:09:44.915Z,15.21
2022-10-13T10:12:49.323Z,15.50
2022-10-13T10:16:13.492Z,15.78
2022-10-13T10:19:29.095Z,16.26
2022-10-13T10:22:52.787Z,16.40
2022-10-13T10:26:04.256Z,16.60
2022-10-13T10:29:24.593Z,16.62
2022-10-13T10:32:27.104Z,16.74
2022-10-13T10:35:44.382Z,16.76
2022-10-13T10:38:53.299Z,16.88
2022-10-13T10:42:17.220Z,16.99
2022-10-13T10:45:26.244Z,16.80
2022-10-13T10:48:35.068Z,16.72
2022-10-13T10:51:39.362Z,16.83
2022-10-13T10:54:51.108Z,16.98
2022-10-13T10:58:16.900Z,17.19
2022-10-13T11:01:38.250Z,17.24
2022-10-13T11:04:52.752Z,17.14
2022-10-13T11:07:57.369Z,16.64
2022-10-13T11:11:37.953Z,16.89
2022-10-13T11:15:21.758Z,17.01
2022-10-13T11:18:52.505Z,17.08
2022-10-13T11:22:11.243Z,17.06
2022-10-13T11:25:37.327Z,17.22
2022-10-13T11:28:40.407Z,17.39
2022-10-13T11:32:54.046Z,17.56
2022-10-13T11:35:56.701Z,17.60
2022-10-13T11:39:21.222Z,17.41
2022-10-13T11:42:32.627Z,17.52
2022-10-13T11:46:04.834Z,17.60
2022-10-13T11:49:31.142Z,17.80
2022-10-13T11:53:05.242Z,17.90
2022-10-13T11:56:57.526Z,17.85
2022-10-13T12:00:00.033Z,17.95
2022-10-13T12:03:04.992Z,17.99
2022-10-13T12:06:33.451Z,18.01
2022-10-13T12:09:50.083Z,17.94
2022-10-13T12:12:53.799Z,17.97
2022-10-13T12:16:07.189Z,18.30
2022-10-13T12:19:20.415Z,18.39
2022-10-13T12:22:23.184Z,18.37
2022-10-13T12:25:30.426Z,18.38
2022-10-13T12:28:53.599Z,18.50
2022-10-13T12:31:58.228Z,18.54
2022-10-13T12:35:16.239Z,18.48
2022-10-13T12:38:21.749Z,18.59
2022-10-13T12:41:30.910Z,18.59
2022-10-13T12:44:34.006Z,18.64
2022-10-13T12:47:40.107Z,18.66
2022-10-13T12:50:44.167Z,18.63
2022-10-13T12:53:48.031Z,18.57
2022-10-13T12:56:55.352Z,18.45
2022-10-13T12:59:59.055Z,18.35
2022-10-13T13:03:05.491Z,18.33
2022-10-13T13:06:13.537Z,18.29
2022-10-13T13:09:23.125Z,18.15
2022-10-13T13:12:28.645Z,18.12
2022-10-13T13:15:35.709Z,18.23
2022-10-13T13:18:41.799Z,18.23
2022-10-13T13:21:44.288Z,18.23
2022-10-13T13:24:47.362Z,18.04
2022-10-13T13:27:50.220Z,17.73
2022-10-13T13:30:53.898Z,17.64
2022-10-13T13:33:56.354Z,17.64
2022-10-13T13:37:02.014Z,17.54
2022-10-13T13:40:06.638Z,17.38
2022-10-13T13:43:09.527Z,17.33
2022-10-13T13:46:17.150Z,17.29
2022-10-13T13:49:19.536Z,17.19
2022-10-13T13:52:23.324Z,17.05
2022-10-13T13:55:27.491Z,16.85
2022-10-13T13:58:29.886Z,16.73
2022-10-13T14:01:32.520Z,16.60
2022-10-13T14:04:34.985Z,16.60
2022-10-13T14:07:37.370Z,16.52
2022-10-13T14:10:41.206Z,16.49
2022-10-13T14:13:43.656Z,16.57
2022-10-13T14:16:47.729Z,16.66
2022-10-13T14:19:50.176Z,16.71
2022-10-13T14:22:52.635Z,16.79
2022-10-13T14:25:55.043Z,16.84
2022-10-13T14:28:58.364Z,16.87
2022-10-13T14:32:01.058Z,16.89
2022-10-13T14:35:04.444Z,16.90
2022-10-13T14:38:06.885Z,16.91
2022-10-13T14:41:10.638Z,16.82
2022-10-13T14:44:14.059Z,16.76
2022-10-13T14:47:20.730Z,16.66
2022-10-13T14:50:23.382Z,16.63
2022-10-13T14:53:42.380Z,16.47
2022-10-13T14:56:44.930Z,16.22
2022-10-13T14:59:47.589Z,16.05
2022-10-13T15:02:49.915Z,15.77
2022-10-13T15:05:52.204Z,15.59
2022-10-13T15:08:58.974Z,15.38
2022-10-13T15:12:01.494Z,15.22
2022-10-13T15:15:04.491Z,15.03
2022-10-13T15:18:06.877Z,14.84
2022-10-13T15:21:09.347Z,14.68
2022-10-13T15:24:12.003Z,14.56
2022-10-13T15:27:17.831Z,14.35
2022-10-13T15:30:20.359Z,14.17
2022-10-13T15:33:23.275Z,14.00
2022-10-13T15:36:26.201Z,13.75
2022-10-13T15:39:28.533Z,13.59
2022-10-13T15:42:31.003Z,13.45
2022-10-13T15:45:33.660Z,13.38
2022-10-13T15:48:36.077Z,13.29
2022-10-13T15:51:38.410Z,13.14
2022-10-13T15:54:40.969Z,13.00
2022-10-13T15:57:44.171Z,13.21
2022-10-13T16:00:46.696Z,13.38
2022-10-13T16:03:54.719Z,13.28
2022-10-13T16:06:57.276Z,13.05
2022-10-13T16:10:00.232Z,12.86
2022-10-13T16:13:02.695Z,12.63
2022-10-13T16:16:05.275Z,12.48
2022-10-13T16:19:07.613Z,12.32
2022-10-13T16:22:10.075Z,12.19
2022-10-13T16:25:12.552Z,12.16
2022-10-13T16:28:15.235Z,12.39
2022-10-13T16:31:17.785Z,12.21
2022-10-13T16:34:20.644Z,12.11
2022-10-13T16:37:23.805Z,11.90
2022-10-13T16:40:32.734Z,11.80
2022-10-13T16:43:35.754Z,11.62
2022-10-13T16:46:38.187Z,11.52
2022-10-13T16:49:40.693Z,11.40
2022-10-13T16:52:46.140Z,11.28
2022-10-13T16:55:48.643Z,11.17
2022-10-13T16:59:02.232Z,10.99
2022-10-13T17:02:04.694Z,10.89
2022-10-13T17:05:07.588Z,10.79
2022-10-13T17:08:09.984Z,10.68
2022-10-13T17:11:18.623Z,10.55
2022-10-13T17:14:21.033Z,10.43
2022-10-13T17:17:23.513Z,10.41
2022-10-13T17:20:26.178Z,10.41
2022-10-13T17:23:29.790Z,10.39
2022-10-13T17:26:32.149Z,10.30
2022-10-13T17:29:34.480Z,10.17
2022-10-13T17:32:38.709Z,10.20
2022-10-13T17:35:41.071Z,10.12
2022-10-13T17:38:44.284Z,10.05
2022-10-13T17:41:46.710Z,9.93
2022-10-13T17:44:49.661Z,9.88
2022-10-13T17:47:52.139Z,9.85
2022-10-13T17:51:02.350Z,9.78
2022-10-13T17:54:05.103Z,9.78
2022-10-13T17:57:07.512Z,9.86
2022-10-13T18:00:10.545Z,9.76
2022-10-13T18:03:15.706Z,9.68
2022-10-13T18:06:19.518Z,9.72
2022-10-13T18:09:24.280Z,9.66
2022-10-13T18:12:26.623Z,9.62
2022-10-13T18:15:29.111Z,9.64
2022-10-13T18:18:31.764Z,9.65
2022-10-13T18:21:34.169Z,9.72
2022-10-13T18:24:36.611Z,9.74
2022-10-13T18:27:39.000Z,9.90
2022-10-13T18:30:41.392Z,9.99
2022-10-13T18:33:44.200Z,10.00
2022-10-13T18:36:50.366Z,9.96
2022-10-13T18:39:52.746Z,10.00
2022-10-13T18:42:55.123Z,9.93
2022-10-13T18:46:01.410Z,9.90
2022-10-13T18:49:04.962Z,9.95
2022-10-13T18:52:07.416Z,9.93
2022-10-13T18:55:13.560Z,10.00
2022-10-13T18:58:15.976Z,10.06
2022-10-13T19:01:20.814Z,10.07
2022-10-13T19:04:23.267Z,10.16
2022-10-13T19:07:26.126Z,10.12
2022-10-13T19:10:30.829Z,10.17
2022-10-13T19:13:33.240Z,10.20
2022-10-13T19:16:38.527Z,10.21
2022-10-13T19:19:41.478Z,10.21
2022-10-13T19:22:43.890Z,10.28
2022-10-13T19:25:49.369Z,10.28
2022-10-13T19:29:07.749Z,10.30
2022-10-13T19:32:10.106Z,10.36
2022-10-13T19:35:12.770Z,10.45
2022-10-13T19:38:16.172Z,10.46
2022-10-13T19:41:18.816Z,10.51
2022-10-13T19:44:23.115Z,10.47
2022-10-13T19:47:25.522Z,10.49
2022-10-13T19:50:28.344Z,10.43
2022-10-13T19:53:30.752Z,10.51
2022-10-13T19:56:34.068Z,10.58
2022-10-13T19:59:37.518Z,10.57
2022-10-13T20:02:39.839Z,10.54
2022-10-13T20:05:42.452Z,10.57
2022-10-13T20:08:45.431Z,10.59
2022-10-13T20:11:50.421Z,10.60
2022-10-13T20:14:52.797Z,10.84
2022-10-13T20:17:55.150Z,10.81
2022-10-13T20:21:01.755Z,10.72
2022-10-13T20:24:04.221Z,10.74
2022-10-13T20:27:06.527Z,10.76
2022-10-13T20:30:09.997Z,10.78
2022-10-13T20:33:12.416Z,10.81
2022-10-13T20:36:17.358Z,10.77
2022-10-13T20:39:19.774Z,10.74
2022-10-13T20:42:22.168Z,10.71
2022-10-13T20:45:24.894Z,10.73
2022-10-13T20:48:51.111Z,10.71
2022-10-13T20:51:53.530Z,10.74
2022-10-13T20:54:55.874Z,10.65
2022-10-13T20:57:59.253Z,10.64
2022-10-13T21:01:02.461Z,10.62
2022-10-13T21:04:05.226Z,10.58
2022-10-13T21:07:07.630Z,10.58
2022-10-13T21:10:10.227Z,10.51
2022-10-13T21:13:14.039Z,10.41
2022-10-13T21:16:19.206Z,10.35
2022-10-13T21:19:21.801Z,10.23
2022-10-13T21:22:24.160Z,10.10
2022-10-13T21:25:28.005Z,9.98
2022-10-13T21:28:37.348Z,9.87
2022-10-13T21:31:39.675Z,9.77
2022-10-13T21:34:42.030Z,9.76
2022-10-13T21:37:44.390Z,9.70
2022-10-13T21:40:49.378Z,9.62
2022-10-13T21:43:56.118Z,9.55
2022-10-13T21:46:58.574Z,9.52
2022-10-13T21:50:01.575Z,9.42
2022-10-13T21:53:03.960Z,9.30
2022-10-13T21:56:08.241Z,9.22
2022-10-13T21:59:12.677Z,9.10
2022-10-13T22:02:15.139Z,9.02
2022-10-13T22:05:17.588Z,8.93
2022-10-13T22:08:37.680Z,8.88
2022-10-13T22:11:44.993Z,8.94
2022-10-13T22:14:47.428Z,9.01
2022-10-13T22:17:49.792Z,8.90
2022-10-13T22:20:52.819Z,8.79
2022-10-13T22:23:59.756Z,8.76
2022-10-13T22:27:02.116Z,8.76
2022-10-13T22:30:04.797Z,8.74
2022-10-13T22:33:07.273Z,8.82
2022-10-13T22:36:31.665Z,8.77
2022-10-13T22:39:34.170Z,8.76
2022-10-13T22:42:44.064Z,8.71
2022-10-13T22:45:50.983Z,8.69
2022-10-13T22:48:53.853Z,8.60
2022-10-13T22:51:56.231Z,8.49
2022-10-13T22:54:58.541Z,8.44
2022-10-13T22:58:00.855Z,8.39
2022-10-13T23:01:08.939Z,8.34
2022-10-13T23:04:11.331Z,8.23
2022-10-13T23:07:13.704Z,8.20
2022-10-13T23:10:17.423Z,8.13
2022-10-13T23:13:19.812Z,8.26
2022-10-13T23:16:26.441Z,8.19
2022-10-13T23:19:28.869Z,8.08
2022-10-13T23:22:31.406Z,7.99
2022-10-13T23:25:34.972Z,7.94
2022-10-13T23:28:38.222Z,7.86
2022-10-13T23:31:40.653Z,7.78
2022-10-13T23:34:42.998Z,7.76
2022-10-13T23:37:45.691Z,7.68
2022-10-13T23:40:49.439Z,7.65
2022-10-13T23:43:52.236Z,7.65
2022-10-13T23:46:54.532Z,7.62
2022-10-13T23:49:56.925Z,7.63
2022-10-13T23:52:59.345Z,7.59
2022-10-13T23:56:03.937Z,7.77
2022-10-13T23:59:06.519Z,7.63
